Time;durP1;ratioP1;P1;durP2;ratioP2;P2;SDS_P1;SDS_P2;PMS_P1;PMS_P2;Temp;Humidity;BMP_temperature;BMP_pressure;BME280_temperature;BME280_humidity;BME280_pressure;Samples;Min_cycle;Max_cycle;Signal;HPM_P1;HPM_P2
2022/11/09 00:00:35;;;;;;;1999.90;999.90;;;15.70;99.90;;;;;;5054853;28;20454;-67
2022/11/09 00:03:02;;;;;;;1999.90;999.90;;;15.40;99.90;;;;;;5058026;28;20465;-68
2022/11/09 00:05:29;;;;;;;1999.90;999.90;;;15.20;99.90;;;;;;5052729;28;20469;-69
2022/11/09 00:07:57;;;;;;;1999.90;999.90;;;15.10;99.90;;;;;;5068109;28;20489;-68
2022/11/09 00:10:23;;;;;;;1999.90;999.90;;;15.00;99.90;;;;;;5060167;28;20467;-68
2022/11/09 00:12:50;;;;;;;1999.90;999.90;;;15.00;99.90;;;;;;5056354;28;20458;-67
2022/11/09 00:15:17;;;;;;;1999.90;999.90;;;14.90;99.90;;;;;;5054899;28;20458;-68
2022/11/09 00:17:44;;;;;;;1999.90;999.90;;;14.90;99.90;;;;;;5062475;28;20552;-68
2022/11/09 00:20:11;;;;;;;1999.90;999.90;;;14.90;99.90;;;;;;5056608;28;20458;-68
2022/11/09 00:22:38;;;;;;;1999.90;999.90;;;14.80;99.90;;;;;;5064732;28;20449;-68
2022/11/09 00:25:07;;;;;;;1999.90;999.90;;;15.30;99.90;;;;;;5057475;28;20460;-68
2022/11/09 00:27:34;;;;;;;1999.90;999.90;;;14.80;99.90;;;;;;5055839;28;20487;-67
2022/11/09 00:30:01;;;;;;;1999.90;999.90;;;14.70;99.90;;;;;;5057004;28;20458;-67
2022/11/09 00:32:27;;;;;;;1999.90;999.90;;;14.70;99.90;;;;;;5056099;28;20545;-69
2022/11/09 00:34:54;;;;;;;1999.90;999.90;;;14.70;99.90;;;;;;5057360;28;20472;-68
2022/11/09 00:37:21;;;;;;;1999.90;999.90;;;14.70;99.90;;;;;;5061359;28;20449;-69
2022/11/09 00:39:48;;;;;;;1999.90;999.90;;;14.70;99.90;;;;;;5065427;28;20462;-68
2022/11/09 00:42:16;;;;;;;1999.90;999.90;;;14.70;99.90;;;;;;5055419;28;20457;-68
2022/11/09 00:44:42;;;;;;;1999.90;999.90;;;14.60;99.90;;;;;;5056422;28;20457;-68
2022/11/09 00:47:09;;;;;;;1999.90;999.90;;;14.60;99.90;;;;;;5060212;28;20464;-68
2022/11/09 00:49:36;;;;;;;1999.90;999.90;;;14.50;99.90;;;;;;5054554;28;20473;-69
2022/11/09 00:52:03;;;;;;;1999.90;999.90;;;14.50;99.90;;;;;;5083519;22;20501;-71
2022/11/09 00:54:29;;;;;;;1999.90;999.90;;;14.40;99.90;;;;;;5066538;28;20453;-70
2022/11/09 00:56:56;;;;;;;1999.90;999.90;;;14.50;99.90;;;;;;5067407;28;20461;-71
2022/11/09 00:59:24;;;;;;;1999.90;999.90;;;14.50;99.90;;;;;;5066509;28;20450;-71
2022/11/09 01:01:51;;;;;;;1999.90;999.90;;;14.50;99.90;;;;;;5061265;28;20485;-71
2022/11/09 01:04:18;;;;;;;1999.90;999.90;;;14.50;99.90;;;;;;5045963;28;20464;-69
2022/11/09 01:06:45;;;;;;;1999.90;999.90;;;14.40;99.90;;;;;;5050204;28;20966;-71
2022/11/09 01:09:13;;;;;;;1999.90;999.90;;;14.40;99.90;;;;;;5054813;28;20491;-71
2022/11/09 01:11:39;;;;;;;1999.90;999.90;;;14.40;99.90;;;;;;5055283;28;20478;-71
2022/11/09 01:14:06;;;;;;;1999.90;999.90;;;14.30;99.90;;;;;;5053327;28;20458;-70
2022/11/09 01:16:35;;;;;;;1999.90;999.90;;;14.30;99.90;;;;;;5046623;28;20463;-71
2022/11/09 01:19:01;;;;;;;1999.90;999.90;;;14.30;99.90;;;;;;5052757;28;20465;-71
2022/11/09 01:21:29;;;;;;;1999.90;999.90;;;14.30;99.90;;;;;;5050818;28;20488;-71
2022/11/09 01:23:57;;;;;;;1999.90;999.90;;;14.20;99.90;;;;;;5052392;28;20466;-70
2022/11/09 01:26:24;;;;;;;1999.90;999.90;;;14.20;99.90;;;;;;5053250;28;20464;-71
2022/11/09 01:28:51;;;;;;;1999.90;999.90;;;14.20;99.90;;;;;;5046578;28;20487;-72
2022/11/09 01:31:20;;;;;;;1999.90;999.90;;;14.10;99.90;;;;;;5048057;28;20489;-71
2022/11/09 01:33:49;;;;;;;1999.90;999.90;;;14.10;99.90;;;;;;5045514;28;20469;-71
2022/11/09 01:36:18;;;;;;;1999.90;999.90;;;14.10;99.90;;;;;;5045688;28;20832;-71
2022/11/09 01:38:45;;;;;;;1999.90;999.90;;;14.00;99.90;;;;;;5050795;28;20836;-71
2022/11/09 01:41:15;;;;;;;1999.90;999.90;;;14.00;99.90;;;;;;5053283;28;20504;-71
2022/11/09 01:43:41;;;;;;;1999.90;999.90;;;14.00;99.90;;;;;;5047429;28;20942;-71
2022/11/09 01:46:17;;;;;;;1999.90;999.90;;;14.10;99.90;;;;;;5056169;28;20458;-71
2022/11/09 01:48:50;;;;;;;1999.90;999.90;;;14.00;99.90;;;;;;5045196;28;20485;-70
2022/11/09 01:51:23;;;;;;;1999.90;999.90;;;14.00;99.90;;;;;;5059039;28;20872;-72
2022/11/09 01:53:53;;;;;;;1999.90;999.90;;;14.00;99.90;;;;;;5052401;28;20465;-70
2022/11/09 01:56:20;;;;;;;1999.90;999.90;;;13.90;99.90;;;;;;5046150;28;20466;-70
2022/11/09 01:58:50;;;;;;;1999.90;999.90;;;14.00;99.90;;;;;;5054450;28;20846;-70
2022/11/09 02:01:18;;;;;;;1999.90;999.90;;;14.00;99.90;;;;;;5046219;28;20485;-71
2022/11/09 02:03:51;;;;;;;1999.90;999.90;;;13.90;99.90;;;;;;5043396;28;20459;-71
2022/11/09 02:06:21;;;;;;;1999.90;999.90;;;13.90;99.90;;;;;;5049122;28;20461;-71
2022/11/09 02:08:49;;;;;;;1999.90;999.90;;;14.00;99.90;;;;;;5045336;28;21002;-71
2022/11/09 02:11:19;;;;;;;1999.90;999.90;;;14.00;99.90;;;;;;5055198;28;20500;-71
2022/11/09 02:13:51;;;;;;;1999.90;999.90;;;13.90;99.90;;;;;;5056750;28;20517;-71
2022/11/09 02:16:19;;;;;;;1999.90;999.90;;;13.90;99.90;;;;;;5051856;28;20474;-71
2022/11/09 02:18:52;;;;;;;1999.90;999.90;;;13.90;99.90;;;;;;5047442;28;20459;-71
2022/11/09 02:21:20;;;;;;;1999.90;999.90;;;14.00;99.90;;;;;;5044353;28;20484;-71
2022/11/09 02:23:47;;;;;;;1999.90;999.90;;;14.00;99.90;;;;;;5044004;28;20459;-71
2022/11/09 02:26:16;;;;;;;1999.90;999.90;;;14.10;99.90;;;;;;5043507;28;20462;-70
2022/11/09 02:28:43;;;;;;;1999.90;999.90;;;14.10;99.90;;;;;;5055574;28;20494;-70
2022/11/09 02:31:14;;;;;;;1999.90;999.90;;;14.20;99.90;;;;;;5052315;28;20482;-70
2022/11/09 02:33:44;;;;;;;1999.90;999.90;;;14.20;99.90;;;;;;5049308;28;20825;-71
2022/11/09 02:36:11;;;;;;;1999.90;999.90;;;14.10;99.90;;;;;;5059827;28;20446;-71
2022/11/09 02:38:39;;;;;;;1999.90;999.90;;;14.10;99.90;;;;;;5054534;28;20505;-71
2022/11/09 02:41:07;;;;;;;1999.90;999.90;;;14.10;99.90;;;;;;5066217;28;20950;-70
2022/11/09 02:43:35;;;;;;;1999.90;999.90;;;14.10;99.90;;;;;;5053564;28;20462;-71
2022/11/09 02:46:02;;;;;;;1999.90;999.90;;;14.10;99.90;;;;;;5066482;28;20462;-70
2022/11/09 02:48:29;;;;;;;1999.90;999.90;;;14.10;99.90;;;;;;5060960;28;20490;-71
2022/11/09 02:50:55;;;;;;;1999.90;999.90;;;14.20;99.90;;;;;;5050326;28;20467;-71
2022/11/09 02:53:22;;;;;;;1999.90;999.90;;;14.10;99.90;;;;;;5049299;28;20484;-70
2022/11/09 02:55:50;;;;;;;1999.90;999.90;;;14.00;99.90;;;;;;5046144;28;20484;-70
2022/11/09 02:58:17;;;;;;;1999.90;999.90;;;14.10;99.90;;;;;;5047925;28;21190;-70
2022/11/09 03:00:44;;;;;;;1999.90;999.90;;;14.10;99.90;;;;;;5040763;28;20459;-71
2022/11/09 03:03:11;;;;;;;1999.90;999.90;;;14.20;99.90;;;;;;5056462;28;20485;-71
2022/11/09 03:05:38;;;;;;;1999.90;999.90;;;14.20;99.90;;;;;;5046709;28;20923;-71
2022/11/09 03:08:05;;;;;;;1999.90;999.90;;;14.30;99.90;;;;;;5048428;28;21100;-71
2022/11/09 03:10:31;;;;;;;1999.90;999.90;;;14.30;99.90;;;;;;5044627;28;20469;-71
2022/11/09 03:12:59;;;;;;;1999.90;999.90;;;14.30;99.90;;;;;;5048064;28;20489;-71
2022/11/09 03:15:26;;;;;;;1999.90;999.90;;;14.30;99.90;;;;;;5056615;28;20464;-71
2022/11/09 03:17:53;;;;;;;1999.90;999.90;;;14.20;99.90;;;;;;5053266;28;20459;-71
2022/11/09 03:20:20;;;;;;;1999.90;999.90;;;14.20;99.90;;;;;;5043289;28;20466;-71
2022/11/09 03:22:46;;;;;;;1999.90;999.90;;;14.20;99.90;;;;;;5041768;28;20491;-71
2022/11/09 03:25:13;;;;;;;1999.90;999.90;;;14.20;99.90;;;;;;5045188;28;20458;-71
2022/11/09 03:27:40;;;;;;;1999.90;999.90;;;14.10;99.90;;;;;;5044028;28;20470;-71
2022/11/09 03:30:09;;;;;;;1999.90;999.90;;;14.10;99.90;;;;;;5046274;28;20490;-71
2022/11/09 03:32:36;;;;;;;1999.90;999.90;;;14.10;99.90;;;;;;5048558;28;20474;-71
2022/11/09 03:35:03;;;;;;;1999.90;999.90;;;14.40;99.90;;;;;;5043786;28;20549;-71
2022/11/09 03:37:30;;;;;;;1999.90;999.90;;;14.10;99.90;;;;;;5043812;28;20458;-71
2022/11/09 03:39:56;;;;;;;1999.90;999.90;;;14.20;99.90;;;;;;5039760;28;20459;-71
2022/11/09 03:42:23;;;;;;;1999.90;999.90;;;14.20;99.90;;;;;;5047350;28;20478;-71
2022/11/09 03:44:50;;;;;;;1999.90;999.90;;;14.20;99.90;;;;;;5051914;28;20868;-70
2022/11/09 03:47:18;;;;;;;1999.90;999.90;;;14.20;99.90;;;;;;5052329;28;20454;-71
2022/11/09 03:49:45;;;;;;;1999.90;999.90;;;14.20;99.90;;;;;;5041680;28;20490;-71
2022/11/09 03:52:11;;;;;;;1999.90;999.90;;;14.20;99.90;;;;;;5045133;28;20481;-71
2022/11/09 03:54:38;;;;;;;1999.90;999.90;;;14.20;99.90;;;;;;5050329;28;20836;-71
2022/11/09 03:57:05;;;;;;;1999.90;999.90;;;14.10;99.90;;;;;;5051029;28;20467;-71
2022/11/09 03:59:32;;;;;;;1999.90;999.90;;;14.10;99.90;;;;;;5058706;28;20453;-71
2022/11/09 04:01:58;;;;;;;1999.90;999.90;;;14.10;99.90;;;;;;5052626;28;20515;-70
2022/11/09 04:04:26;;;;;;;1999.90;999.90;;;14.20;99.90;;;;;;5047722;28;20831;-69
2022/11/09 04:06:53;;;;;;;1999.90;999.90;;;14.10;99.90;;;;;;5056252;28;20962;-70
2022/11/09 04:09:20;;;;;;;1999.90;999.90;;;14.10;99.90;;;;;;5059776;28;20498;-71
2022/11/09 04:11:47;;;;;;;1999.90;999.90;;;14.00;99.90;;;;;;5058349;28;20497;-71
2022/11/09 04:14:13;;;;;;;1999.90;999.90;;;14.00;99.90;;;;;;5053225;28;20950;-71
2022/11/09 04:16:40;;;;;;;1999.90;999.90;;;13.90;99.90;;;;;;5046342;28;20966;-70
2022/11/09 04:19:07;;;;;;;1999.90;999.90;;;13.90;99.90;;;;;;5056826;28;20496;-71
2022/11/09 04:21:35;;;;;;;1999.90;999.90;;;14.00;99.90;;;;;;5054794;28;21018;-70
2022/11/09 04:24:02;;;;;;;1999.90;999.90;;;13.90;99.90;;;;;;5054398;28;20891;-71
2022/11/09 04:26:29;;;;;;;1999.90;999.90;;;13.80;99.90;;;;;;5052635;28;20954;-71
2022/11/09 04:28:55;;;;;;;1999.90;999.90;;;13.80;99.90;;;;;;5053170;28;20485;-71
2022/11/09 04:31:22;;;;;;;1999.90;999.90;;;13.80;99.90;;;;;;5044766;28;20489;-70
2022/11/09 04:33:50;;;;;;;1999.90;999.90;;;14.00;99.90;;;;;;5046404;28;20988;-71
2022/11/09 04:36:18;;;;;;;1999.90;999.90;;;14.10;99.90;;;;;;5051208;28;20454;-71
2022/11/09 04:38:46;;;;;;;1999.90;999.90;;;14.10;99.90;;;;;;5053225;28;20458;-71
2022/11/09 04:41:12;;;;;;;1999.90;999.90;;;14.20;99.90;;;;;;5050324;28;20482;-71
2022/11/09 04:43:39;;;;;;;1999.90;999.90;;;14.30;99.90;;;;;;5050660;28;20482;-71
2022/11/09 04:46:06;;;;;;;1999.90;999.90;;;14.30;99.90;;;;;;5055962;28;20461;-71
2022/11/09 04:48:33;;;;;;;1999.90;999.90;;;14.30;99.90;;;;;;5061085;28;20457;-70
2022/11/09 04:51:01;;;;;;;1999.90;999.90;;;14.50;99.90;;;;;;5057243;28;20821;-71
2022/11/09 04:53:28;;;;;;;1999.90;999.90;;;14.50;99.90;;;;;;5058680;28;20503;-71
2022/11/09 04:55:56;;;;;;;1999.90;999.90;;;14.50;99.90;;;;;;5054154;28;20919;-71
2022/11/09 04:58:23;;;;;;;1999.90;999.90;;;14.70;99.90;;;;;;5044758;28;20465;-71
2022/11/09 05:00:50;;;;;;;1999.90;999.90;;;14.70;99.90;;;;;;5045191;28;20522;-71
2022/11/09 05:03:17;;;;;;;1999.90;999.90;;;14.80;99.90;;;;;;5056258;28;20458;-70
2022/11/09 05:05:44;;;;;;;1999.90;999.90;;;14.80;99.90;;;;;;5055454;28;20477;-71
2022/11/09 05:08:11;;;;;;;1999.90;999.90;;;14.80;99.90;;;;;;5047706;28;20464;-71
2022/11/09 05:10:38;;;;;;;1999.90;999.90;;;14.90;99.90;;;;;;5050887;28;20493;-71
2022/11/09 05:13:08;;;;;;;1999.90;999.90;;;14.80;99.90;;;;;;5049542;28;20485;-71
2022/11/09 05:15:36;;;;;;;1999.90;999.90;;;14.80;99.90;;;;;;5053534;28;20462;-71
2022/11/09 05:18:03;;;;;;;1999.90;999.90;;;14.80;99.90;;;;;;5053349;28;20466;-71
2022/11/09 05:20:30;;;;;;;1999.90;999.90;;;14.80;99.90;;;;;;5053588;28;20466;-71
2022/11/09 05:25:42;;;;;;;1999.90;999.90;;;14.70;99.90;;;;;;5050635;28;20516;-70
2022/11/09 05:28:10;;;;;;;1999.90;999.90;;;14.70;99.90;;;;;;5046762;28;20463;-71
2022/11/09 05:30:37;;;;;;;1999.90;999.90;;;14.60;99.90;;;;;;5046909;28;20489;-70
2022/11/09 05:33:04;;;;;;;1999.90;999.90;;;14.50;99.90;;;;;;5054027;28;20491;-71
2022/11/09 05:35:32;;;;;;;1999.90;999.90;;;14.40;99.90;;;;;;5051941;28;20457;-71
2022/11/09 05:37:59;;;;;;;1999.90;999.90;;;14.30;99.90;;;;;;5053312;28;20466;-71
2022/11/09 05:40:25;;;;;;;1999.90;999.90;;;14.30;99.90;;;;;;5054970;28;20459;-71
2022/11/09 05:42:52;;;;;;;1999.90;999.90;;;14.20;99.90;;;;;;5049541;28;20478;-70
2022/11/09 05:45:20;;;;;;;1999.90;999.90;;;14.10;99.90;;;;;;5057122;28;20462;-70
2022/11/09 05:47:47;;;;;;;1999.90;999.90;;;14.00;99.90;;;;;;5053115;28;20483;-71
2022/11/09 05:50:15;;;;;;;1999.90;999.90;;;13.90;99.90;;;;;;5055861;28;20574;-71
2022/11/09 05:52:42;;;;;;;1999.90;999.90;;;13.90;99.90;;;;;;5055900;28;20499;-71
2022/11/09 05:55:09;;;;;;;1999.90;999.90;;;13.90;99.90;;;;;;5050827;28;20981;-70
2022/11/09 05:57:36;;;;;;;1999.90;999.90;;;13.90;99.90;;;;;;5053727;28;20946;-71
2022/11/09 06:00:04;;;;;;;1999.90;999.90;;;13.90;99.90;;;;;;5050960;28;20458;-71
2022/11/09 06:02:32;;;;;;;1999.90;999.90;;;13.90;99.90;;;;;;5055746;28;20488;-70
2022/11/09 06:04:59;;;;;;;1999.90;999.90;;;13.90;99.90;;;;;;5047934;28;20470;-70
2022/11/09 06:07:26;;;;;;;1999.90;999.90;;;13.90;99.90;;;;;;5055151;28;20455;-70
2022/11/09 06:09:53;;;;;;;1999.90;999.90;;;13.80;99.90;;;;;;5054100;28;20497;-70
2022/11/09 06:12:19;;;;;;;1999.90;999.90;;;13.80;99.90;;;;;;5053564;28;20493;-71
2022/11/09 06:14:46;;;;;;;1999.90;999.90;;;13.80;99.90;;;;;;5056072;28;20449;-71
2022/11/09 06:17:13;;;;;;;1999.90;999.90;;;13.80;99.90;;;;;;5056343;28;20446;-71
2022/11/09 06:19:41;;;;;;;1999.90;999.90;;;13.80;99.90;;;;;;5056157;28;20954;-70
2022/11/09 06:22:08;;;;;;;1999.90;999.90;;;13.80;99.90;;;;;;5055107;28;20473;-71
2022/11/09 06:24:34;;;;;;;1999.90;999.90;;;13.80;99.90;;;;;;5052268;28;20466;-71
2022/11/09 06:27:01;;;;;;;1999.90;999.90;;;13.70;99.90;;;;;;5055836;28;20453;-71
2022/11/09 06:29:28;;;;;;;1999.90;999.90;;;13.70;99.90;;;;;;5056187;28;20488;-70
2022/11/09 06:31:55;;;;;;;1999.90;999.90;;;13.70;99.90;;;;;;5056858;28;20486;-70
2022/11/09 06:34:21;;;;;;;1999.90;999.90;;;13.70;99.90;;;;;;5048501;28;20558;-70
2022/11/09 06:36:50;;;;;;;1999.90;999.90;;;13.70;99.90;;;;;;5040667;28;20473;-70
2022/11/09 06:39:17;;;;;;;1999.90;999.90;;;13.60;99.90;;;;;;5053948;28;20480;-71
2022/11/09 06:41:43;;;;;;;1999.90;999.90;;;13.60;99.90;;;;;;5049414;28;20478;-71
2022/11/09 06:44:10;;;;;;;1999.90;999.90;;;13.70;99.90;;;;;;5054179;28;20462;-71
2022/11/09 06:46:37;;;;;;;1999.90;999.90;;;13.60;99.90;;;;;;5056098;28;20460;-71
2022/11/09 06:49:03;;;;;;;1999.90;999.90;;;13.60;99.90;;;;;;5052550;28;20825;-71
2022/11/09 06:51:30;;;;;;;1999.90;999.90;;;13.60;99.90;;;;;;5054089;28;20508;-70
2022/11/09 06:53:58;;;;;;;1999.90;999.90;;;13.50;99.90;;;;;;5058171;22;20586;-68
2022/11/09 06:56:25;;;;;;;1999.90;999.90;;;13.50;99.90;;;;;;5030346;28;20464;-66
2022/11/09 06:58:52;;;;;;;1999.90;999.90;;;13.60;99.90;;;;;;5033051;28;20475;-67
2022/11/09 07:01:27;;;;;;;1999.90;999.90;;;13.60;99.90;;;;;;5030996;28;21013;-67
2022/11/09 07:03:54;;;;;;;1999.90;999.90;;;13.70;99.90;;;;;;5029279;28;20478;-68
2022/11/09 07:06:21;;;;;;;1999.90;999.90;;;13.70;99.90;;;;;;5026291;28;20936;-67
2022/11/09 07:08:47;;;;;;;1999.90;999.90;;;13.70;99.90;;;;;;5026092;28;21046;-67
2022/11/09 07:11:18;;;;;;;1999.90;999.90;;;13.80;99.90;;;;;;5028170;28;20486;-67
2022/11/09 07:13:46;;;;;;;1999.90;999.90;;;13.80;99.90;;;;;;5048562;28;20950;-67
2022/11/09 07:16:16;;;;;;;1999.90;999.90;;;13.90;99.90;;;;;;5043318;28;20450;-67
2022/11/09 07:18:43;;;;;;;1999.90;999.90;;;13.90;99.90;;;;;;5033975;28;20555;-67
2022/11/09 07:21:09;;;;;;;1999.90;999.90;;;14.00;99.90;;;;;;5030999;28;20455;-67
2022/11/09 07:23:36;;;;;;;1999.90;999.90;;;14.10;99.90;;;;;;5029569;28;20502;-70
2022/11/09 07:26:03;;;;;;;1999.90;999.90;;;14.30;99.90;;;;;;5031125;28;20970;-67
2022/11/09 07:28:31;;;;;;;1999.90;999.90;;;14.30;99.90;;;;;;5034880;28;20455;-67
2022/11/09 07:30:58;;;;;;;1999.90;999.90;;;14.40;99.90;;;;;;5030484;28;20842;-67
2022/11/09 07:33:25;;;;;;;1999.90;999.90;;;14.30;99.90;;;;;;5029726;28;20479;-67
2022/11/09 07:35:52;;;;;;;1999.90;999.90;;;14.30;99.90;;;;;;5027672;28;20451;-67
2022/11/09 07:38:19;;;;;;;1999.90;999.90;;;14.30;99.90;;;;;;5028920;28;20454;-67
2022/11/09 07:40:46;;;;;;;1999.90;999.90;;;14.30;99.90;;;;;;5032073;28;20452;-67
2022/11/09 07:43:13;;;;;;;1999.90;999.90;;;14.30;99.90;;;;;;5029728;28;21034;-67
2022/11/09 07:45:41;;;;;;;1999.90;999.90;;;14.50;99.90;;;;;;5029954;28;20474;-68
2022/11/09 07:48:10;;;;;;;1999.90;999.90;;;14.60;99.90;;;;;;5028542;28;20486;-68
2022/11/09 07:50:39;;;;;;;1999.90;999.90;;;14.50;99.90;;;;;;5029142;28;20478;-67
2022/11/09 07:53:07;;;;;;;1999.90;999.90;;;14.60;99.90;;;;;;5030219;28;20540;-67
2022/11/09 07:55:34;;;;;;;1999.90;999.90;;;14.60;99.90;;;;;;5032186;28;20817;-67
2022/11/09 07:58:03;;;;;;;1999.90;999.90;;;14.60;99.90;;;;;;5032468;28;20471;-67
2022/11/09 08:00:32;;;;;;;1999.90;999.90;;;14.70;99.90;;;;;;5030379;28;20487;-67
2022/11/09 08:03:00;;;;;;;1999.90;999.90;;;14.80;99.90;;;;;;5037845;28;20459;-68
2022/11/09 08:05:27;;;;;;;1999.90;999.90;;;14.90;99.90;;;;;;5030984;28;20931;-68
2022/11/09 08:07:58;;;;;;;1999.90;999.90;;;14.90;99.90;;;;;;5033266;28;20955;-68
2022/11/09 08:10:25;;;;;;;1999.90;999.90;;;15.10;99.90;;;;;;5033148;28;20483;-68
2022/11/09 08:12:56;;;;;;;1999.90;999.90;;;15.30;99.90;;;;;;5033212;28;20444;-68
2022/11/09 08:15:24;;;;;;;1999.90;999.90;;;15.50;99.90;;;;;;5032119;28;20527;-67
2022/11/09 08:17:50;;;;;;;1999.90;999.90;;;15.60;99.90;;;;;;5030731;28;20471;-68
2022/11/09 08:20:19;;;;;;;1999.90;999.90;;;15.50;99.90;;;;;;5029486;28;20485;-70
2022/11/09 08:22:47;;;;;;;1999.90;999.90;;;15.50;99.90;;;;;;5033000;28;20485;-68
2022/11/09 08:25:14;;;;;;;1999.90;999.90;;;15.50;99.90;;;;;;5032166;28;20474;-68
2022/11/09 08:27:41;;;;;;;1999.90;999.90;;;15.50;99.90;;;;;;5032854;28;20446;-68
2022/11/09 08:30:11;;;;;;;1999.90;999.90;;;15.50;99.90;;;;;;5032377;28;20493;-68
2022/11/09 08:32:38;;;;;;;1999.90;999.90;;;15.60;99.90;;;;;;5027215;28;21037;-68
2022/11/09 08:35:05;;;;;;;1999.90;999.90;;;15.60;99.90;;;;;;5031282;28;20475;-68
2022/11/09 08:37:35;;;;;;;1999.90;999.90;;;15.70;99.90;;;;;;5032899;28;20450;-68
2022/11/09 08:40:02;;;;;;;1999.90;999.90;;;15.90;99.90;;;;;;5032240;28;20932;-68
2022/11/09 08:42:28;;;;;;;1999.90;999.90;;;16.20;99.90;;;;;;5032336;28;20482;-68
2022/11/09 08:44:55;;;;;;;1999.90;999.90;;;16.10;99.90;;;;;;5031777;28;20474;-68
2022/11/09 08:47:22;;;;;;;1999.90;999.90;;;16.10;99.90;;;;;;5027890;28;20482;-68
2022/11/09 08:49:49;;;;;;;1999.90;999.90;;;16.10;99.90;;;;;;5032288;28;20475;-68
2022/11/09 08:52:17;;;;;;;1999.90;999.90;;;16.10;99.90;;;;;;5032617;28;20459;-68
2022/11/09 08:54:45;;;;;;;1999.90;999.90;;;16.10;99.90;;;;;;5030593;28;20534;-68
2022/11/09 08:57:12;;;;;;;1999.90;999.90;;;16.00;99.90;;;;;;5032378;28;20450;-68
2022/11/09 08:59:38;;;;;;;1999.90;999.90;;;16.00;99.90;;;;;;5031263;28;20454;-68
2022/11/09 09:02:06;;;;;;;1999.90;999.90;;;16.00;99.90;;;;;;5031063;28;20474;-68
2022/11/09 09:04:32;;;;;;;1999.90;999.90;;;16.10;99.90;;;;;;5031254;28;20838;-68
2022/11/09 09:07:00;;;;;;;1999.90;999.90;;;15.90;99.90;;;;;;5032006;28;20833;-68
2022/11/09 09:09:26;;;;;;;1999.90;999.90;;;16.00;99.90;;;;;;5031978;28;20462;-68
2022/11/09 09:11:55;;;;;;;1999.90;999.90;;;15.90;99.90;;;;;;5032263;28;20483;-68
2022/11/09 09:14:22;;;;;;;1999.90;999.90;;;16.00;99.90;;;;;;5031440;28;20471;-68
2022/11/09 09:16:48;;;;;;;1999.90;999.90;;;16.20;99.90;;;;;;5028730;28;20468;-68
2022/11/09 09:19:15;;;;;;;1999.90;999.90;;;16.30;99.90;;;;;;5030500;28;20443;-68
2022/11/09 09:21:42;;;;;;;1999.90;999.90;;;16.40;99.90;;;;;;5029632;28;20459;-68
2022/11/09 09:24:09;;;;;;;1999.90;999.90;;;16.60;99.90;;;;;;5026277;28;22100;-68
2022/11/09 09:26:36;;;;;;;1999.90;999.90;;;16.60;99.90;;;;;;5030796;28;20950;-68
2022/11/09 09:29:04;;;;;;;1999.90;999.90;;;16.70;99.90;;;;;;5031723;28;20940;-68
2022/11/09 09:31:31;;;;;;;1999.90;999.90;;;16.80;99.90;;;;;;5031766;28;20494;-68
2022/11/09 09:33:57;;;;;;;1999.90;999.90;;;16.70;99.90;;;;;;5031246;28;20482;-68
2022/11/09 09:36:24;;;;;;;1999.90;999.90;;;16.70;99.90;;;;;;5031127;28;20455;-68
2022/11/09 09:38:52;;;;;;;1999.90;999.90;;;16.70;99.90;;;;;;5029471;28;20994;-68
2022/11/09 09:41:22;;;;;;;1999.90;999.90;;;16.60;99.90;;;;;;5031360;28;20932;-68
2022/11/09 09:43:52;;;;;;;1999.90;999.90;;;16.30;99.90;;;;;;5031156;28;20510;-68
2022/11/09 09:46:26;;;;;;;1999.90;999.90;;;16.30;99.90;;;;;;5030918;28;20458;-68
2022/11/09 09:48:58;;;;;;;1999.90;999.90;;;16.20;99.90;;;;;;5031870;28;20435;-68
2022/11/09 09:51:30;;;;;;;1999.90;999.90;;;16.10;99.90;;;;;;5029660;28;20967;-67
2022/11/09 09:54:03;;;;;;;1999.90;999.90;;;16.00;99.90;;;;;;5027754;28;20494;-68
2022/11/09 09:56:33;;;;;;;1999.90;999.90;;;16.00;99.90;;;;;;5023058;28;20460;-68
2022/11/09 09:59:07;;;;;;;1999.90;999.90;;;15.90;99.90;;;;;;5025512;28;20841;-68
2022/11/09 10:01:38;;;;;;;1999.90;999.90;;;15.80;99.90;;;;;;5028470;28;20446;-68
2022/11/09 10:04:15;;;;;;;1999.90;999.90;;;15.80;99.90;;;;;;5026036;28;21027;-68
2022/11/09 10:06:59;;;;;;;1999.90;999.90;;;15.80;99.90;;;;;;5026252;28;20516;-68
2022/11/09 10:09:36;;;;;;;1999.90;999.90;;;15.90;99.90;;;;;;5021722;28;20495;-68
2022/11/09 10:12:24;;;;;;;1999.90;999.90;;;15.90;99.90;;;;;;5023090;28;20494;-69
2022/11/09 10:15:03;;;;;;;1999.90;999.90;;;15.70;99.90;;;;;;5023902;28;20487;-68
2022/11/09 10:17:41;;;;;;;1999.90;999.90;;;15.60;99.90;;;;;;5021700;28;20529;-70
2022/11/09 10:20:23;;;;;;;1999.90;999.90;;;15.70;99.90;;;;;;5030829;28;20470;-67
2022/11/09 10:23:01;;;;;;;1999.90;999.90;;;15.70;99.90;;;;;;5023408;28;20539;-68
2022/11/09 10:25:31;;;;;;;1999.90;999.90;;;15.70;99.90;;;;;;5026337;28;20459;-68
2022/11/09 10:28:00;;;;;;;1999.90;999.90;;;15.80;99.90;;;;;;5027683;28;20955;-68
2022/11/09 10:30:29;;;;;;;1999.90;999.90;;;15.90;99.90;;;;;;5023602;28;20479;-68
2022/11/09 10:33:12;;;;;;;1999.90;999.90;;;16.10;99.90;;;;;;5027968;28;20854;-68
2022/11/09 10:35:44;;;;;;;1999.90;999.90;;;16.10;99.90;;;;;;5034560;28;20541;-68
2022/11/09 10:38:18;;;;;;;1999.90;999.90;;;16.10;99.90;;;;;;5042458;28;20442;-68
2022/11/09 10:40:51;;;;;;;1999.90;999.90;;;15.90;99.90;;;;;;5051215;28;20439;-68
2022/11/09 10:43:18;;;;;;;1999.90;999.90;;;15.80;99.90;;;;;;5045750;28;20487;-68
2022/11/09 10:45:46;;;;;;;1999.90;999.90;;;15.70;99.90;;;;;;5030159;28;20534;-68
2022/11/09 10:48:15;;;;;;;1999.90;999.90;;;15.70;99.90;;;;;;5030912;28;20882;-68
2022/11/09 10:50:48;;;;;;;1999.90;999.90;;;16.00;99.90;;;;;;5029795;28;20502;-68
2022/11/09 10:53:18;;;;;;;1999.90;999.90;;;16.10;99.90;;;;;;5027719;28;20523;-68
2022/11/09 10:55:54;;;;;;;1999.90;999.90;;;16.30;99.90;;;;;;5033716;28;20526;-68
2022/11/09 10:58:28;;;;;;;1999.90;999.90;;;16.50;99.90;;;;;;5040259;28;20955;-68
2022/11/09 11:00:58;;;;;;;1999.90;999.90;;;16.70;99.90;;;;;;5034166;28;21110;-68
2022/11/09 11:03:28;;;;;;;1999.90;999.90;;;16.60;99.90;;;;;;5014712;28;20456;-68
2022/11/09 11:05:58;;;;;;;1999.90;999.90;;;16.70;99.90;;;;;;5013860;28;20451;-68
2022/11/09 11:08:29;;;;;;;1999.90;999.90;;;16.80;99.90;;;;;;5014388;28;20444;-68
2022/11/09 11:11:20;;;;;;;1999.90;999.90;;;17.10;99.90;;;;;;5014774;28;20503;-68
2022/11/09 11:13:48;;;;;;;1999.90;999.90;;;17.10;99.90;;;;;;5029990;28;20494;-68
2022/11/09 11:16:23;;;;;;;1999.90;999.90;;;17.10;99.90;;;;;;5033448;28;20498;-68
2022/11/09 11:18:52;;;;;;;1999.90;999.90;;;17.20;99.90;;;;;;5034442;28;20427;-68
2022/11/09 11:21:20;;;;;;;1999.90;999.90;;;17.40;99.90;;;;;;5034225;28;20815;-68
2022/11/09 11:24:10;;;;;;;1999.90;999.90;;;17.20;99.90;;;;;;5033955;28;20467;-68
2022/11/09 11:26:41;;;;;;;1999.90;999.90;;;17.00;99.90;;;;;;5032361;28;20436;-68
2022/11/09 11:29:30;;;;;;;1999.90;999.90;;;16.90;99.90;;;;;;5031421;28;20443;-68
2022/11/09 11:31:57;;;;;;;1999.90;999.90;;;16.90;99.90;;;;;;5033382;28;20471;-68
2022/11/09 11:34:26;;;;;;;1999.90;999.90;;;17.10;99.90;;;;;;5033164;28;20491;-67
2022/11/09 11:37:03;;;;;;;1999.90;999.90;;;17.20;99.90;;;;;;5033937;28;20466;-68
2022/11/09 11:39:43;;;;;;;1999.90;999.90;;;17.10;99.90;;;;;;5033744;28;20446;-67
2022/11/09 11:42:28;;;;;;;1999.90;999.90;;;17.10;99.90;;;;;;5032693;28;20533;-68
2022/11/09 11:45:14;;;;;;;1999.90;999.90;;;17.10;99.90;;;;;;5033052;28;20474;-68
2022/11/09 11:47:49;;;;;;;1999.90;999.90;;;17.00;99.90;;;;;;5033943;28;20431;-68
2022/11/09 11:50:30;;;;;;;1999.90;999.90;;;16.90;99.90;;;;;;5033586;28;20442;-68
2022/11/09 11:53:08;;;;;;;1999.90;999.90;;;16.90;99.90;;;;;;5029304;28;20461;-68
2022/11/09 11:55:51;;;;;;;1999.90;999.90;;;16.70;99.90;;;;;;5021801;28;20463;-68
2022/11/09 11:58:28;;;;;;;1999.90;999.90;;;16.60;99.90;;;;;;5030354;28;20845;-68
2022/11/09 12:01:02;;;;;;;1999.90;999.90;;;16.70;99.90;;;;;;5026358;28;20462;-68
2022/11/09 12:03:57;;;;;;;1999.90;999.90;;;16.50;99.90;;;;;;5033803;28;20475;-68
2022/11/09 12:06:37;;;;;;;1999.90;999.90;;;16.50;99.90;;;;;;5051289;28;20446;-68
2022/11/09 12:09:36;;;;;;;1999.90;999.90;;;16.50;99.90;;;;;;5053018;28;20544;-68